createdAt,value
2023-01-01T00:01:53.429Z,72.38
2023-01-01T00:04:23.391Z,76.32
2023-01-01T00:06:53.295Z,76.07
2023-01-01T00:09:35.755Z,72.03
2023-01-01T00:12:05.730Z,75.18
2023-01-01T00:14:35.578Z,75.25
2023-01-01T00:17:05.498Z,81.00
2023-01-01T00:19:35.280Z,80.60
2023-01-01T00:22:27.799Z,75.80
2023-01-01T00:24:55.233Z,75.95
2023-01-01T00:27:25.102Z,73.75
2023-01-01T00:29:54.942Z,75.03
2023-01-01T00:32:25.095Z,77.13
2023-01-01T00:34:55.061Z,72.57
2023-01-01T00:37:25.076Z,73.37
2023-01-01T00:39:54.992Z,74.00
2023-01-01T00:42:24.903Z,76.73
2023-01-01T00:44:54.808Z,77.00
2023-01-01T00:47:24.664Z,72.67
2023-01-01T00:49:54.586Z,70.37
2023-01-01T00:52:24.613Z,74.97
2023-01-01T00:54:54.537Z,77.38
2023-01-01T00:57:25.314Z,79.00
2023-01-01T00:59:55.049Z,82.57
2023-01-01T01:02:25.155Z,78.65
2023-01-01T01:04:55.273Z,79.88
2023-01-01T01:07:25.678Z,84.50
2023-01-01T01:09:55.597Z,82.90
2023-01-01T01:12:25.519Z,75.07
2023-01-01T01:14:58.548Z,74.82
2023-01-01T01:17:28.590Z,76.80
2023-01-01T01:19:58.449Z,75.65
2023-01-01T01:22:29.184Z,79.23
2023-01-01T01:27:29.164Z,77.30
2023-01-01T01:29:59.014Z,85.13
2023-01-01T01:32:28.849Z,106.00
2023-01-01T01:34:58.764Z,111.07
2023-01-01T01:37:28.615Z,111.73
2023-01-01T01:39:58.456Z,111.20
2023-01-01T01:42:28.431Z,111.27
2023-01-01T01:45:03.410Z,103.22
2023-01-01T01:47:52.977Z,106.25
2023-01-01T01:50:36.022Z,102.10
2023-01-01T01:53:22.015Z,104.43
2023-01-01T01:56:03.740Z,104.15
2023-01-01T01:58:37.316Z,102.03
2023-01-01T02:01:08.452Z,101.15
2023-01-01T02:03:52.076Z,109.85
2023-01-01T02:06:23.728Z,108.72
2023-01-01T02:11:27.109Z,118.50
2023-01-01T02:13:58.475Z,111.45
2023-01-01T02:16:59.543Z,109.82
2023-01-01T02:23:03.932Z,103.32
2023-01-01T02:26:17.271Z,105.22
2023-01-01T02:29:08.291Z,101.32
2023-01-01T02:31:45.739Z,106.30
2023-01-01T02:34:23.832Z,104.22
2023-01-01T02:36:57.486Z,97.45
2023-01-01T02:39:34.105Z,104.95
2023-01-01T02:42:10.660Z,114.70
2023-01-01T02:44:46.143Z,106.75
2023-01-01T02:47:20.907Z,89.18
2023-01-01T02:50:19.213Z,91.60
2023-01-01T02:53:11.031Z,84.47
2023-01-01T02:56:09.095Z,86.50
2023-01-01T02:59:15.911Z,87.55
2023-01-01T03:01:56.613Z,87.32
2023-01-01T03:04:56.869Z,86.45
2023-01-01T03:07:57.032Z,85.55
2023-01-01T03:10:42.700Z,97.68
2023-01-01T03:13:30.857Z,92.45
2023-01-01T03:16:10.053Z,101.78
2023-01-01T03:18:46.871Z,95.80
2023-01-01T03:23:52.339Z,97.00
2023-01-01T03:34:19.100Z,97.28
2023-01-01T03:36:55.613Z,106.10
2023-01-01T03:39:31.558Z,107.18
2023-01-01T03:42:19.124Z,111.90
2023-01-01T03:44:54.706Z,124.15
2023-01-01T03:47:24.487Z,127.40
2023-01-01T03:49:54.451Z,134.80
2023-01-01T03:53:01.775Z,144.02
2023-01-01T03:55:39.559Z,134.55
2023-01-01T03:58:45.458Z,143.85
2023-01-01T04:01:37.864Z,141.75
2023-01-01T04:04:09.096Z,141.43
2023-01-01T04:06:38.962Z,134.52
2023-01-01T04:09:15.246Z,139.20
2023-01-01T04:12:00.241Z,142.77
2023-01-01T04:14:43.004Z,132.80
2023-01-01T04:17:14.355Z,131.85
2023-01-01T04:19:45.525Z,133.73
2023-01-01T04:22:19.753Z,129.75
2023-01-01T04:24:49.689Z,127.60
2023-01-01T04:27:19.597Z,128.85
2023-01-01T04:29:49.573Z,125.97
2023-01-01T04:32:19.622Z,116.97
2023-01-01T04:34:49.671Z,122.75
2023-01-01T04:37:19.597Z,121.75
2023-01-01T04:39:49.964Z,126.60
2023-01-01T04:42:19.844Z,123.30
2023-01-01T04:44:49.921Z,125.15
2023-01-01T04:47:20.016Z,115.28
2023-01-01T04:49:49.933Z,116.90
2023-01-01T04:52:19.843Z,119.70
2023-01-01T04:54:49.762Z,119.93
2023-01-01T04:57:20.424Z,125.80
2023-01-01T05:02:19.694Z,127.50
2023-01-01T05:04:49.787Z,128.68
2023-01-01T05:07:19.644Z,139.73
2023-01-01T05:09:49.543Z,129.05
2023-01-01T05:12:19.488Z,132.70
2023-01-01T05:14:49.376Z,132.27
2023-01-01T05:17:19.343Z,130.98
2023-01-01T05:19:49.228Z,127.45
2023-01-01T05:22:19.164Z,112.65
2023-01-01T05:24:52.012Z,113.25
2023-01-01T05:27:22.018Z,121.70
2023-01-01T05:29:51.821Z,118.93
2023-01-01T05:32:21.733Z,122.25
2023-01-01T05:34:51.615Z,121.45
2023-01-01T05:37:21.559Z,128.32
2023-01-01T05:39:51.480Z,129.88
2023-01-01T05:42:21.707Z,131.90
2023-01-01T05:44:52.106Z,118.07
2023-01-01T05:47:24.970Z,119.80
2023-01-01T05:49:57.729Z,119.85
2023-01-01T05:52:27.691Z,111.30
2023-01-01T05:55:03.972Z,103.15
2023-01-01T05:57:34.091Z,92.10
2023-01-01T06:00:05.175Z,88.57
2023-01-01T06:02:35.039Z,94.57
2023-01-01T06:05:04.889Z,81.65
2023-01-01T06:07:34.794Z,77.90
2023-01-01T06:10:05.934Z,72.32
2023-01-01T06:12:36.024Z,63.67
2023-01-01T06:15:06.574Z,63.13
2023-01-01T06:17:40.283Z,64.35
2023-01-01T06:20:11.103Z,62.55
2023-01-01T06:22:41.471Z,69.55
2023-01-01T06:25:13.172Z,65.18
2023-01-01T06:27:44.572Z,65.75
2023-01-01T06:30:15.085Z,63.53
2023-01-01T06:32:48.566Z,59.95
2023-01-01T06:35:18.702Z,59.92
2023-01-01T06:37:49.784Z,60.45
2023-01-01T06:40:22.706Z,62.13
2023-01-01T06:42:52.993Z,57.08
2023-01-01T06:45:25.655Z,52.05
2023-01-01T06:47:57.043Z,49.85
2023-01-01T06:50:27.153Z,44.55
2023-01-01T06:53:01.105Z,41.95
2023-01-01T06:55:31.697Z,48.15
2023-01-01T07:00:35.135Z,49.50
2023-01-01T07:03:05.327Z,44.17
2023-01-01T07:05:35.381Z,35.83
2023-01-01T07:08:05.952Z,36.83
2023-01-01T07:10:36.328Z,35.53
2023-01-01T07:15:36.502Z,34.23
2023-01-01T07:20:35.777Z,40.55
2023-01-01T07:23:06.016Z,41.95
2023-01-01T07:25:35.921Z,42.08
2023-01-01T07:28:05.756Z,38.83
2023-01-01T07:30:35.725Z,44.53
2023-01-01T07:33:05.575Z,46.45
2023-01-01T07:35:35.711Z,56.60
2023-01-01T07:38:06.537Z,64.57
2023-01-01T07:40:37.499Z,61.60
2023-01-01T07:43:07.949Z,64.85
2023-01-01T07:45:41.991Z,63.50
2023-01-01T07:48:17.913Z,64.38
2023-01-01T07:50:48.050Z,56.55
2023-01-01T07:53:22.017Z,54.03
2023-01-01T07:55:52.837Z,52.30
2023-01-01T07:58:27.289Z,52.53
2023-01-01T08:00:57.177Z,53.53
2023-01-01T08:03:27.863Z,47.70
2023-01-01T08:05:58.241Z,55.45
2023-01-01T08:08:29.243Z,55.45
2023-01-01T08:11:04.292Z,64.13
2023-01-01T08:13:34.993Z,52.85
2023-01-01T08:16:05.748Z,60.30
2023-01-01T08:18:36.302Z,63.20
2023-01-01T08:21:07.198Z,58.88
2023-01-01T08:23:37.997Z,59.45
2023-01-01T08:26:08.139Z,58.40
2023-01-01T08:28:39.625Z,61.55
2023-01-01T08:31:12.232Z,54.30
2023-01-01T08:33:42.082Z,57.00
2023-01-01T08:36:15.179Z,56.20
2023-01-01T08:38:46.714Z,54.08
2023-01-01T08:41:16.741Z,55.08
2023-01-01T08:43:46.907Z,56.95
2023-01-01T08:46:19.919Z,58.10
2023-01-01T08:48:50.355Z,58.17
2023-01-01T08:53:56.629Z,52.70
2023-01-01T08:56:36.068Z,55.40
2023-01-01T08:59:06.775Z,54.30
2023-01-01T09:01:40.088Z,53.13
2023-01-01T09:04:15.948Z,51.35
2023-01-01T09:06:52.212Z,58.33
2023-01-01T09:09:27.286Z,52.47
2023-01-01T09:12:11.447Z,54.55
2023-01-01T09:17:11.617Z,51.92
2023-01-01T09:19:42.631Z,51.05
2023-01-01T09:22:15.264Z,54.75
2023-01-01T09:24:45.507Z,54.63
2023-01-01T09:27:15.831Z,53.50
2023-01-01T09:29:45.858Z,55.03
2023-01-01T09:32:16.040Z,58.00
2023-01-01T09:34:50.469Z,53.90
2023-01-01T09:37:22.595Z,55.28
2023-01-01T09:39:55.578Z,58.40
2023-01-01T09:42:50.791Z,58.55
2023-01-01T09:45:33.963Z,58.83
2023-01-01T09:48:19.389Z,59.38
2023-01-01T09:50:50.236Z,57.13
2023-01-01T09:53:37.100Z,59.75
2023-01-01T09:56:08.334Z,56.88
2023-01-01T09:58:40.418Z,56.75
2023-01-01T10:01:50.528Z,56.20
2023-01-01T10:04:52.583Z,58.60
2023-01-01T10:07:52.602Z,57.45
2023-01-01T10:10:38.959Z,55.70
2023-01-01T10:13:32.639Z,55.90
2023-01-01T10:16:22.265Z,62.47
2023-01-01T10:19:00.052Z,59.10
2023-01-01T10:21:42.109Z,57.70
2023-01-01T10:24:40.421Z,59.63
2023-01-01T10:27:14.828Z,61.20
2023-01-01T10:29:49.213Z,58.33
2023-01-01T10:32:36.939Z,60.03
2023-01-01T10:35:16.633Z,62.55
2023-01-01T10:37:46.865Z,58.50
2023-01-01T10:40:22.261Z,60.42
2023-01-01T10:42:56.708Z,64.20
2023-01-01T10:45:47.232Z,61.92
2023-01-01T10:48:33.240Z,65.90
2023-01-01T10:51:08.319Z,67.72
2023-01-01T10:53:45.958Z,65.30
2023-01-01T10:56:18.131Z,70.63
2023-01-01T10:58:54.187Z,71.25
2023-01-01T11:01:31.448Z,66.85
2023-01-01T11:04:22.609Z,67.78
2023-01-01T11:06:52.719Z,69.93
2023-01-01T11:09:28.048Z,71.57
2023-01-01T11:12:11.836Z,67.85
2023-01-01T11:15:00.151Z,75.57
2023-01-01T11:17:33.362Z,72.03
2023-01-01T11:20:06.083Z,70.07
2023-01-01T11:22:50.593Z,66.32
2023-01-01T11:25:24.266Z,64.25
2023-01-01T11:27:54.843Z,74.28
2023-01-01T11:35:36.157Z,67.47
2023-01-01T11:38:06.395Z,70.93
2023-01-01T11:40:47.344Z,71.60
2023-01-01T11:45:52.206Z,163.75
2023-01-01T11:48:28.092Z,100.00
2023-01-01T11:51:00.816Z,93.80
2023-01-01T11:53:36.061Z,84.18
2023-01-01T11:56:25.677Z,77.28
2023-01-01T11:59:00.972Z,81.13
2023-01-01T12:01:56.114Z,93.15
2023-01-01T12:04:50.029Z,105.05
2023-01-01T12:07:29.157Z,105.18
2023-01-01T12:10:13.966Z,105.18
2023-01-01T12:13:07.645Z,112.15
2023-01-01T12:15:43.387Z,104.55
2023-01-01T12:18:36.885Z,102.10
2023-01-01T12:21:33.138Z,94.50
2023-01-01T12:24:04.827Z,89.18
2023-01-01T12:26:57.976Z,93.15
2023-01-01T12:29:55.159Z,102.30
2023-01-01T12:33:08.078Z,103.28
2023-01-01T12:36:01.000Z,103.88
2023-01-01T12:39:04.079Z,106.68
2023-01-01T12:41:48.343Z,120.30
2023-01-01T12:44:57.132Z,110.30
2023-01-01T12:48:00.957Z,109.25
2023-01-01T12:51:09.733Z,100.32
2023-01-01T12:54:02.768Z,92.63
2023-01-01T12:56:54.651Z,95.80
2023-01-01T12:59:32.996Z,95.28
2023-01-01T13:02:12.479Z,101.85
2023-01-01T13:04:44.693Z,124.30
2023-01-01T13:07:21.121Z,136.43
2023-01-01T13:09:51.981Z,126.95
2023-01-01T13:12:26.209Z,124.10
2023-01-01T13:14:56.595Z,119.53
2023-01-01T13:17:29.504Z,105.57
2023-01-01T13:20:22.772Z,110.13
2023-01-01T13:22:52.781Z,108.15
2023-01-01T13:25:26.057Z,116.80
2023-01-01T13:28:08.012Z,115.47
2023-01-01T13:30:52.400Z,119.05
2023-01-01T13:33:30.962Z,119.57
2023-01-01T13:36:32.673Z,124.93
2023-01-01T13:39:07.101Z,114.18
2023-01-01T13:41:48.782Z,110.20
2023-01-01T13:44:25.974Z,107.32
2023-01-01T13:47:15.337Z,102.18
2023-01-01T13:50:13.815Z,103.53
2023-01-01T13:53:16.276Z,101.53
2023-01-01T13:56:00.136Z,102.80
2023-01-01T13:59:00.930Z,100.38
2023-01-01T14:01:57.837Z,96.07
2023-01-01T14:04:53.695Z,94.82
2023-01-01T14:07:51.088Z,99.38
2023-01-01T14:10:41.091Z,97.45
2023-01-01T14:13:19.530Z,101.40
2023-01-01T14:16:05.003Z,100.53
2023-01-01T14:18:41.736Z,102.55
2023-01-01T14:21:17.176Z,103.10
2023-01-01T14:24:06.593Z,101.72
2023-01-01T14:26:40.050Z,105.80
2023-01-01T14:29:18.304Z,104.47
2023-01-01T14:31:49.245Z,104.50
2023-01-01T14:34:36.633Z,105.60
2023-01-01T14:37:21.569Z,110.10
2023-01-01T14:40:08.802Z,123.95
2023-01-01T14:42:39.890Z,123.78
2023-01-01T14:45:18.116Z,134.75
2023-01-01T14:47:58.605Z,133.63
2023-01-01T14:50:34.603Z,140.73
2023-01-01T14:53:28.015Z,145.50
2023-01-01T14:55:57.996Z,142.88
2023-01-01T14:58:31.996Z,142.80
2023-01-01T15:01:29.313Z,149.68
2023-01-01T15:04:03.247Z,141.27
2023-01-01T15:06:34.504Z,147.63
2023-01-01T15:09:05.269Z,149.93
2023-01-01T15:14:06.189Z,134.75
2023-01-01T15:16:40.052Z,134.98
2023-01-01T15:19:22.071Z,124.93
2023-01-01T15:21:52.161Z,112.15
2023-01-01T15:24:27.804Z,111.55
2023-01-01T15:27:00.908Z,108.28
2023-01-01T15:29:43.173Z,110.47
2023-01-01T15:32:17.751Z,105.38
2023-01-01T15:34:54.434Z,101.65
2023-01-01T15:37:45.442Z,98.07
2023-01-01T15:40:36.859Z,102.97
2023-01-01T15:43:16.704Z,101.15
2023-01-01T15:46:02.441Z,99.97
2023-01-01T15:48:49.414Z,99.63
2023-01-01T15:51:23.813Z,102.35
2023-01-01T15:53:59.988Z,108.47
2023-01-01T15:56:35.881Z,107.35
2023-01-01T15:59:10.107Z,108.57
2023-01-01T16:01:42.768Z,106.72
2023-01-01T16:04:27.668Z,112.13
2023-01-01T16:07:01.180Z,113.75
2023-01-01T16:09:31.747Z,107.75
2023-01-01T16:12:02.261Z,109.40
2023-01-01T16:14:32.330Z,112.15
2023-01-01T16:17:04.799Z,104.88
2023-01-01T16:19:36.490Z,110.55
2023-01-01T16:22:06.734Z,110.63
2023-01-01T16:24:38.811Z,110.38
2023-01-01T16:27:08.931Z,105.35
2023-01-01T16:29:41.287Z,110.03
2023-01-01T16:32:20.782Z,106.20
2023-01-01T16:34:51.658Z,104.93
2023-01-01T16:37:24.421Z,106.53
2023-01-01T16:39:54.420Z,104.63
2023-01-01T16:42:24.692Z,105.47
2023-01-01T16:44:55.183Z,102.28
2023-01-01T16:47:33.841Z,103.28
2023-01-01T16:50:05.548Z,100.80
2023-01-01T16:52:39.491Z,95.28
2023-01-01T16:55:12.810Z,102.78
2023-01-01T16:57:42.982Z,99.70
2023-01-01T17:00:13.711Z,100.13
2023-01-01T17:05:13.836Z,98.97
2023-01-01T17:07:43.989Z,98.38
2023-01-01T17:10:14.324Z,104.05
2023-01-01T17:12:44.330Z,96.43
2023-01-01T17:15:14.458Z,97.80
2023-01-01T17:17:45.327Z,97.07
2023-01-01T17:20:15.301Z,92.65
2023-01-01T17:22:45.094Z,96.55
2023-01-01T17:25:15.064Z,93.17
2023-01-01T17:27:47.439Z,100.47
2023-01-01T17:30:19.305Z,97.28
2023-01-01T17:32:49.409Z,102.30
2023-01-01T17:35:29.901Z,97.85
2023-01-01T17:38:04.999Z,91.10
2023-01-01T17:40:37.092Z,88.65
2023-01-01T17:43:07.492Z,93.82
2023-01-01T17:45:39.270Z,90.82
2023-01-01T17:48:09.476Z,87.68
2023-01-01T17:50:39.366Z,90.50
2023-01-01T17:53:13.923Z,90.60
2023-01-01T17:55:44.246Z,88.35
2023-01-01T17:58:14.139Z,93.50
2023-01-01T18:00:44.199Z,88.70
2023-01-01T18:03:19.747Z,94.05
2023-01-01T18:05:49.725Z,90.53
2023-01-01T18:08:20.715Z,90.93
2023-01-01T18:11:00.139Z,93.15
2023-01-01T18:13:32.758Z,85.70
2023-01-01T18:16:04.080Z,100.20
2023-01-01T18:18:38.192Z,89.32
2023-01-01T18:21:13.745Z,86.95
2023-01-01T18:23:44.861Z,92.70
2023-01-01T18:26:15.318Z,97.70
2023-01-01T18:28:45.921Z,92.75
2023-01-01T18:31:18.864Z,97.28
2023-01-01T18:33:49.522Z,95.57
2023-01-01T18:36:23.439Z,96.10
2023-01-01T18:39:01.258Z,94.00
2023-01-01T18:42:03.850Z,93.20
2023-01-01T18:44:35.389Z,97.75
2023-01-01T18:47:22.355Z,94.43
2023-01-01T18:49:56.319Z,94.03
2023-01-01T18:52:30.050Z,94.97
2023-01-01T18:55:17.136Z,91.57
2023-01-01T18:57:52.181Z,95.50
2023-01-01T19:00:27.716Z,92.47
2023-01-01T19:03:07.552Z,87.65
2023-01-01T19:05:39.196Z,86.03
2023-01-01T19:08:23.988Z,93.50
2023-01-01T19:10:56.979Z,92.88
2023-01-01T19:13:34.421Z,88.93
2023-01-01T19:16:26.112Z,89.00
2023-01-01T19:18:58.395Z,87.82
2023-01-01T19:21:28.327Z,84.70
2023-01-01T19:24:00.691Z,88.32
2023-01-01T19:26:36.676Z,91.72
2023-01-01T19:29:27.444Z,88.32
2023-01-01T19:31:59.278Z,82.53
2023-01-01T19:34:29.156Z,89.20
2023-01-01T19:36:59.101Z,84.82
2023-01-01T19:39:29.221Z,82.47
2023-01-01T19:42:05.334Z,85.32
2023-01-01T19:44:37.010Z,81.05
2023-01-01T19:47:07.193Z,83.80
2023-01-01T19:49:37.293Z,80.85
2023-01-01T19:52:07.974Z,84.75
2023-01-01T19:57:07.366Z,84.07
2023-01-01T19:59:37.222Z,83.97
2023-01-01T20:04:57.117Z,85.87
2023-01-01T20:07:27.044Z,88.63
2023-01-01T20:10:00.382Z,87.05
2023-01-01T20:12:30.280Z,82.97
2023-01-01T20:15:00.350Z,84.55
2023-01-01T20:17:32.220Z,83.78
2023-01-01T20:20:02.346Z,77.95
2023-01-01T20:22:32.216Z,82.97
2023-01-01T20:25:02.150Z,77.60
2023-01-01T20:27:32.101Z,78.15
2023-01-01T20:30:02.029Z,77.28
2023-01-01T20:32:31.942Z,80.85
2023-01-01T20:35:02.540Z,80.97
2023-01-01T20:37:39.451Z,78.55
2023-01-01T20:40:12.212Z,76.68
2023-01-01T20:42:42.048Z,81.25
2023-01-01T20:45:12.456Z,82.20
2023-01-01T20:47:42.800Z,85.68
2023-01-01T20:50:12.765Z,80.35
2023-01-01T20:52:42.827Z,80.60
2023-01-01T20:55:12.839Z,75.50
2023-01-01T20:57:42.681Z,82.28
2023-01-01T21:00:13.291Z,77.82
2023-01-01T21:02:43.447Z,77.10
2023-01-01T21:05:13.450Z,79.28
2023-01-01T21:07:43.377Z,84.63
2023-01-01T21:10:13.506Z,90.53
2023-01-01T21:12:43.384Z,90.63
2023-01-01T21:15:17.633Z,100.05
2023-01-01T21:17:47.584Z,98.85
2023-01-01T21:20:17.656Z,101.28
2023-01-01T21:22:49.677Z,100.82
2023-01-01T21:28:19.376Z,96.93
2023-01-01T21:30:55.692Z,97.50
2023-01-01T21:33:30.620Z,97.43
2023-01-01T21:36:04.163Z,98.65
2023-01-01T21:38:35.118Z,97.18
2023-01-01T21:41:05.439Z,100.20
2023-01-01T21:43:44.296Z,100.68
2023-01-01T21:46:34.748Z,103.60
2023-01-01T21:49:25.242Z,101.75
2023-01-01T21:52:04.807Z,98.65
2023-01-01T21:54:40.216Z,100.22
2023-01-01T21:57:24.360Z,106.05
2023-01-01T21:59:56.027Z,106.00
2023-01-01T22:02:36.826Z,103.32
2023-01-01T22:05:29.586Z,108.05
2023-01-01T22:08:00.738Z,106.35
2023-01-01T22:10:37.969Z,108.15
2023-01-01T22:13:17.091Z,102.55
2023-01-01T22:15:48.218Z,104.93
2023-01-01T22:18:32.478Z,102.18
2023-01-01T22:21:04.447Z,101.07
2023-01-01T22:23:41.947Z,104.50
2023-01-01T22:26:23.851Z,104.22
2023-01-01T22:29:00.299Z,97.45
2023-01-01T22:31:34.024Z,102.57
2023-01-01T22:34:06.982Z,96.43
2023-01-01T22:36:39.453Z,93.85
2023-01-01T22:39:29.036Z,95.57
2023-01-01T22:41:59.887Z,90.55
2023-01-01T22:47:03.285Z,90.40
2023-01-01T22:49:40.715Z,88.85
2023-01-01T22:52:13.051Z,96.15
2023-01-01T22:54:42.908Z,94.82
2023-01-01T22:57:12.900Z,90.30
2023-01-01T22:59:42.992Z,92.63
2023-01-01T23:02:12.990Z,93.40
2023-01-01T23:04:42.948Z,92.25
2023-01-01T23:07:16.148Z,93.90
2023-01-01T23:09:47.886Z,89.72
2023-01-01T23:12:17.934Z,91.35
2023-01-01T23:14:59.623Z,90.10
2023-01-01T23:17:29.631Z,89.95
2023-01-01T23:20:00.410Z,89.45
2023-01-01T23:25:01.628Z,91.38
2023-01-01T23:27:31.667Z,92.35
2023-01-01T23:30:03.120Z,90.32
2023-01-01T23:32:33.310Z,91.22
2023-01-01T23:35:03.351Z,93.07
2023-01-01T23:37:33.281Z,91.50
2023-01-01T23:40:03.223Z,88.32
2023-01-01T23:42:33.228Z,93.38
2023-01-01T23:45:03.137Z,91.75
2023-01-01T23:47:33.049Z,86.38
2023-01-01T23:50:04.041Z,93.50
2023-01-01T23:52:34.055Z,89.60
2023-01-01T23:55:04.069Z,90.45
2023-01-01T23:57:33.805Z,88.93
